createdAt,value
2018-11-28T00:00:33.873Z,14.63
2018-11-28T00:03:04.400Z,15.70
2018-11-28T00:05:32.933Z,19.40
2018-11-28T00:08:01.404Z,18.40
2018-11-28T00:10:30.322Z,19.60
2018-11-28T00:12:58.871Z,19.33
2018-11-28T00:15:28.694Z,17.63
2018-11-28T00:17:57.729Z,15.50
2018-11-28T00:20:26.284Z,15.27
2018-11-28T00:22:55.185Z,12.37
2018-11-28T00:25:23.794Z,14.33
2018-11-28T00:27:52.583Z,20.20
2018-11-28T00:30:24.387Z,15.43
2018-11-28T00:32:53.038Z,15.57
2018-11-28T00:35:22.647Z,16.87
2018-11-28T00:37:51.644Z,17.80
2018-11-28T00:40:21.494Z,13.30
2018-11-28T00:42:50.395Z,14.57
2018-11-28T00:45:20.701Z,14.40
2018-11-28T00:47:49.224Z,12.93
2018-11-28T00:50:21.950Z,11.80
2018-11-28T00:52:50.476Z,11.50
2018-11-28T00:55:19.683Z,12.70
2018-11-28T00:57:48.282Z,14.03
2018-11-28T01:00:19.297Z,15.63
2018-11-28T01:02:48.376Z,14.43
2018-11-28T01:05:17.094Z,13.47
2018-11-28T01:07:46.809Z,20.27
2018-11-28T01:10:18.057Z,18.32
2018-11-28T01:12:46.768Z,14.73
2018-11-28T01:15:16.316Z,16.87
2018-11-28T01:17:44.912Z,18.27
2018-11-28T01:20:16.777Z,17.70
2018-11-28T01:22:45.401Z,18.27
2018-11-28T01:25:15.177Z,16.20
2018-11-28T01:27:44.067Z,19.57
2018-11-28T01:30:13.705Z,18.47
2018-11-28T01:32:42.307Z,16.60
2018-11-28T01:35:11.803Z,16.23
2018-11-28T01:37:40.990Z,18.50
2018-11-28T01:40:25.083Z,14.90
2018-11-28T01:42:53.931Z,14.83
2018-11-28T01:45:23.436Z,19.03
2018-11-28T01:47:51.951Z,19.63
2018-11-28T01:50:21.540Z,25.63
2018-11-28T01:52:50.371Z,53.13
2018-11-28T01:55:20.340Z,21.00
2018-11-28T01:57:48.994Z,23.60
2018-11-28T02:00:19.501Z,19.73
2018-11-28T02:02:49.334Z,22.40
2018-11-28T02:05:17.837Z,28.93
2018-11-28T02:07:46.380Z,24.53
2018-11-28T02:10:15.852Z,20.50
2018-11-28T02:12:44.469Z,51.37
2018-11-28T02:15:15.059Z,24.93
2018-11-28T02:17:43.689Z,20.70
2018-11-28T02:20:14.291Z,26.10
2018-11-28T02:22:42.867Z,20.07
2018-11-28T02:25:12.560Z,21.93
2018-11-28T02:27:41.328Z,19.10
2018-11-28T02:30:18.010Z,20.63
2018-11-28T02:32:47.667Z,22.33
2018-11-28T02:35:17.132Z,21.40
2018-11-28T02:37:45.687Z,24.60
2018-11-28T02:40:15.250Z,20.80
2018-11-28T02:42:44.396Z,18.57
2018-11-28T02:45:17.682Z,17.57
2018-11-28T02:47:46.227Z,16.13
2018-11-28T02:50:15.085Z,22.17
2018-11-28T02:52:43.877Z,21.33
2018-11-28T02:55:13.491Z,17.80
2018-11-28T02:57:43.195Z,13.30
2018-11-28T03:00:14.202Z,16.37
2018-11-28T03:02:42.790Z,15.40
2018-11-28T03:05:12.346Z,14.80
2018-11-28T03:07:41.011Z,16.30
2018-11-28T03:10:18.832Z,17.55
2018-11-28T03:12:47.401Z,19.07
2018-11-28T03:15:26.899Z,16.43
2018-11-28T03:17:55.826Z,16.47
2018-11-28T03:20:24.684Z,20.73
2018-11-28T03:22:53.829Z,17.70
2018-11-28T03:25:22.439Z,17.03
2018-11-28T03:27:51.068Z,18.30
2018-11-28T03:30:20.073Z,13.73
2018-11-28T03:32:48.700Z,12.63
2018-11-28T03:35:17.246Z,13.30
2018-11-28T03:37:45.888Z,13.73
2018-11-28T03:40:14.576Z,16.30
2018-11-28T03:42:43.573Z,15.97
2018-11-28T03:45:13.265Z,16.97
2018-11-28T03:47:42.899Z,14.47
2018-11-28T03:50:12.381Z,18.10
2018-11-28T03:52:40.891Z,15.53
2018-11-28T03:55:16.334Z,13.13
2018-11-28T03:57:46.053Z,15.70
2018-11-28T04:00:15.679Z,14.27
2018-11-28T04:02:44.354Z,13.17
2018-11-28T04:05:13.280Z,11.43
2018-11-28T04:07:41.900Z,14.10
2018-11-28T04:10:11.836Z,12.57
2018-11-28T04:12:40.972Z,15.00
2018-11-28T04:15:12.261Z,14.00
2018-11-28T04:17:41.153Z,11.40
2018-11-28T04:20:11.451Z,10.90
2018-11-28T04:22:40.455Z,17.67
2018-11-28T04:25:10.248Z,11.60
2018-11-28T04:27:38.812Z,13.47
2018-11-28T04:30:16.627Z,12.33
2018-11-28T04:32:45.637Z,12.47
2018-11-28T04:35:14.676Z,16.07
2018-11-28T04:37:44.118Z,39.63
2018-11-28T04:40:13.954Z,27.33
2018-11-28T04:42:42.666Z,15.07
2018-11-28T04:45:13.488Z,22.80
2018-11-28T04:47:42.458Z,34.17
2018-11-28T04:50:12.205Z,16.50
2018-11-28T04:52:40.782Z,14.33
2018-11-28T04:55:14.415Z,19.47
2018-11-28T04:57:43.303Z,34.53
2018-11-28T05:00:13.934Z,37.67
2018-11-28T05:02:42.813Z,51.60
2018-11-28T05:05:11.705Z,12.87
2018-11-28T05:07:41.093Z,36.43
2018-11-28T05:10:10.821Z,16.23
2018-11-28T05:12:39.425Z,10.30
2018-11-28T05:15:12.092Z,15.60
2018-11-28T05:17:40.790Z,18.10
2018-11-28T05:20:12.593Z,15.83
2018-11-28T05:22:41.144Z,10.67
2018-11-28T05:25:19.532Z,70.43
2018-11-28T05:27:48.528Z,42.37
2018-11-28T05:30:18.129Z,30.97
2018-11-28T05:32:46.705Z,13.00
2018-11-28T05:35:17.420Z,12.63
2018-11-28T05:37:46.070Z,30.23
2018-11-28T05:40:20.832Z,25.93
2018-11-28T05:42:49.417Z,16.37
2018-11-28T05:45:18.309Z,59.00
2018-11-28T05:47:46.845Z,38.23
2018-11-28T05:50:16.463Z,18.17
2018-11-28T05:52:45.415Z,13.33
2018-11-28T05:55:14.670Z,15.27
2018-11-28T05:57:44.104Z,16.20
2018-11-28T06:00:20.225Z,13.40
2018-11-28T06:02:49.016Z,14.30
2018-11-28T06:05:17.605Z,14.80
2018-11-28T06:07:46.383Z,12.97
2018-11-28T06:10:15.305Z,13.20
2018-11-28T06:12:44.207Z,19.67
2018-11-28T06:15:13.217Z,15.57
2018-11-28T06:17:41.747Z,18.17
2018-11-28T06:20:11.736Z,13.67
2018-11-28T06:22:40.343Z,14.67
2018-11-28T06:25:16.122Z,16.03
2018-11-28T06:27:41.084Z,14.43
2018-11-28T06:30:16.644Z,15.20
2018-11-28T06:32:51.012Z,14.60
2018-11-28T06:35:14.244Z,17.37
2018-11-28T06:37:43.412Z,16.17
2018-11-28T06:40:13.744Z,14.97
2018-11-28T06:42:42.625Z,18.53
2018-11-28T06:45:12.340Z,15.43
2018-11-28T06:47:41.570Z,15.27
2018-11-28T06:50:19.351Z,23.20
2018-11-28T06:52:48.962Z,15.43
2018-11-28T06:55:18.525Z,17.13
2018-11-28T06:57:47.057Z,23.40
2018-11-28T07:00:17.401Z,17.73
2018-11-28T07:02:46.367Z,19.47
2018-11-28T07:05:15.290Z,16.63
2018-11-28T07:07:43.918Z,21.17
2018-11-28T07:10:14.648Z,21.13
2018-11-28T07:12:43.575Z,20.60
2018-11-28T07:15:13.445Z,19.70
2018-11-28T07:17:42.928Z,29.50
2018-11-28T07:20:13.511Z,30.80
2018-11-28T07:22:42.155Z,23.53
2018-11-28T07:25:13.977Z,82.70
2018-11-28T07:27:45.339Z,52.13
2018-11-28T07:30:19.099Z,39.30
2018-11-28T07:32:48.363Z,34.53
2018-11-28T07:35:17.004Z,40.57
2018-11-28T07:37:46.218Z,37.63
2018-11-28T07:40:21.110Z,35.20
2018-11-28T07:42:53.068Z,34.00
2018-11-28T07:45:21.917Z,25.53
2018-11-28T07:47:50.423Z,26.30
2018-11-28T07:50:18.949Z,25.63
2018-11-28T07:52:47.839Z,24.37
2018-11-28T07:55:16.643Z,28.97
2018-11-28T07:57:45.181Z,21.40
2018-11-28T08:00:14.859Z,20.60
2018-11-28T08:02:44.555Z,19.83
2018-11-28T08:05:13.561Z,22.17
2018-11-28T08:07:42.147Z,19.33
2018-11-28T08:10:19.462Z,20.70
2018-11-28T08:12:48.773Z,18.47
2018-11-28T08:15:17.286Z,16.73
2018-11-28T08:17:46.108Z,21.20
2018-11-28T08:20:14.674Z,17.80
2018-11-28T08:22:43.347Z,24.37
2018-11-28T08:25:14.165Z,30.63
2018-11-28T08:27:43.855Z,34.73
2018-11-28T08:30:19.821Z,35.20
2018-11-28T08:32:47.465Z,34.20
2018-11-28T08:35:16.079Z,32.83
2018-11-28T08:37:44.607Z,37.23
2018-11-28T08:40:18.333Z,56.03
2018-11-28T08:42:46.898Z,44.17
2018-11-28T08:45:17.459Z,44.90
2018-11-28T08:47:47.228Z,56.53
2018-11-28T08:50:18.032Z,44.97
2018-11-28T08:52:46.551Z,42.10
2018-11-28T08:55:15.214Z,45.93
2018-11-28T08:57:43.781Z,48.60
2018-11-28T09:00:13.669Z,41.77
2018-11-28T09:02:42.333Z,38.97
2018-11-28T09:05:12.528Z,40.90
2018-11-28T09:07:41.135Z,44.47
2018-11-28T09:10:14.195Z,35.47
2018-11-28T09:12:43.744Z,36.70
2018-11-28T09:15:31.402Z,41.43
2018-11-28T09:17:59.537Z,41.67
2018-11-28T09:20:28.227Z,38.17
2018-11-28T09:22:56.740Z,41.87
2018-11-28T09:25:25.280Z,42.20
2018-11-28T09:27:55.983Z,40.87
2018-11-28T09:30:24.625Z,31.50
2018-11-28T09:32:53.312Z,22.73
2018-11-28T09:35:22.759Z,20.77
2018-11-28T09:37:51.408Z,19.17
2018-11-28T09:40:26.933Z,13.93
2018-11-28T09:42:59.143Z,11.73
2018-11-28T09:45:27.978Z,13.10
2018-11-28T09:47:56.520Z,15.10
2018-11-28T09:50:26.114Z,13.33
2018-11-28T09:52:54.815Z,13.27
2018-11-28T09:55:25.259Z,12.23
2018-11-28T09:57:54.237Z,14.00
2018-11-28T10:00:24.869Z,23.70
2018-11-28T10:02:55.274Z,21.63
2018-11-28T10:05:25.020Z,27.53
2018-11-28T10:07:53.574Z,27.83
2018-11-28T10:10:22.112Z,29.20
2018-11-28T10:12:50.686Z,32.90
2018-11-28T10:15:21.331Z,33.40
2018-11-28T10:17:50.015Z,31.23
2018-11-28T10:20:19.206Z,33.63
2018-11-28T10:22:49.670Z,31.40
2018-11-28T10:25:22.988Z,44.53
2018-11-28T10:27:53.766Z,37.33
2018-11-28T10:30:27.493Z,76.63
2018-11-28T10:32:56.289Z,39.70
2018-11-28T10:35:25.246Z,36.17
2018-11-28T10:37:54.509Z,34.70
2018-11-28T10:40:23.810Z,33.27
2018-11-28T10:42:53.631Z,31.30
2018-11-28T10:45:23.711Z,32.43
2018-11-28T10:47:52.327Z,29.63
2018-11-28T10:50:20.894Z,30.33
2018-11-28T10:52:49.514Z,31.17
2018-11-28T10:55:19.134Z,32.57
2018-11-28T10:57:47.763Z,27.07
2018-11-28T11:00:28.790Z,28.00
2018-11-28T11:03:03.062Z,27.57
2018-11-28T11:05:36.932Z,23.37
2018-11-28T11:08:11.280Z,28.77
2018-11-28T11:10:45.076Z,30.40
2018-11-28T11:13:19.839Z,31.43
2018-11-28T11:15:54.036Z,26.23
2018-11-28T11:18:22.637Z,24.83
2018-11-28T11:20:51.241Z,33.27
2018-11-28T11:23:19.966Z,35.80
2018-11-28T11:25:48.791Z,33.60
2018-11-28T11:28:17.499Z,32.53
2018-11-28T11:30:46.125Z,29.97
2018-11-28T11:33:15.128Z,31.33
2018-11-28T11:35:43.816Z,34.43
2018-11-28T11:38:12.447Z,30.83
2018-11-28T11:40:41.158Z,38.30
2018-11-28T11:43:10.451Z,34.83
2018-11-28T11:45:39.713Z,34.90
2018-11-28T11:48:07.922Z,29.80
2018-11-28T11:50:36.480Z,31.37
2018-11-28T11:53:05.444Z,35.17
2018-11-28T11:55:34.187Z,37.30
2018-11-28T11:58:02.606Z,45.10
2018-11-28T12:00:31.233Z,47.83
2018-11-28T12:03:07.038Z,38.97
2018-11-28T12:05:35.742Z,49.30
2018-11-28T12:08:04.584Z,38.77
2018-11-28T12:10:33.151Z,35.27
2018-11-28T12:13:01.676Z,35.00
2018-11-28T12:15:30.274Z,34.53
2018-11-28T12:17:58.880Z,33.47
2018-11-28T12:21:32.317Z,28.60
2018-11-28T12:24:00.919Z,31.50
2018-11-28T12:26:29.471Z,29.30
2018-11-28T12:28:58.109Z,25.07
2018-11-28T12:31:26.825Z,33.83
2018-11-28T12:33:55.491Z,36.17
2018-11-28T12:36:24.017Z,28.37
2018-11-28T12:38:52.767Z,34.03
2018-11-28T12:41:21.303Z,32.90
2018-11-28T12:43:49.883Z,35.90
2018-11-28T12:46:18.628Z,34.83
2018-11-28T12:48:47.244Z,41.80
2018-11-28T12:51:15.913Z,38.07
2018-11-28T12:53:44.462Z,38.70
2018-11-28T12:56:13.180Z,38.77
2018-11-28T12:58:41.690Z,39.67
2018-11-28T13:01:10.270Z,39.53
2018-11-28T13:03:38.806Z,38.43
2018-11-28T13:06:07.363Z,45.73
2018-11-28T13:08:38.703Z,42.20
2018-11-28T13:11:08.251Z,45.97
2018-11-28T13:13:37.055Z,47.37
2018-11-28T13:16:06.383Z,46.83
2018-11-28T13:18:35.025Z,47.57
2018-11-28T13:21:03.630Z,47.60
2018-11-28T13:23:32.164Z,48.67
2018-11-28T13:26:00.693Z,48.43
2018-11-28T13:28:29.347Z,52.10
2018-11-28T13:30:57.933Z,41.87
2018-11-28T13:33:26.449Z,56.67
2018-11-28T13:35:55.012Z,56.20
2018-11-28T13:38:23.925Z,54.17
2018-11-28T13:40:52.792Z,56.40
2018-11-28T13:43:21.419Z,58.10
2018-11-28T13:45:50.382Z,59.73
2018-11-28T13:48:18.988Z,59.30
2018-11-28T13:50:47.559Z,61.23
2018-11-28T13:53:17.350Z,59.67
2018-11-28T13:56:57.074Z,67.40
2018-11-28T13:58:25.100Z,57.10
2018-11-28T14:00:53.693Z,67.00
2018-11-28T14:03:23.264Z,63.47
2018-11-28T14:05:51.929Z,66.30
2018-11-28T14:08:20.689Z,59.17
2018-11-28T14:10:49.290Z,62.23
2018-11-28T14:13:17.912Z,56.40
2018-11-28T14:15:46.824Z,54.97
2018-11-28T14:18:17.702Z,60.80
2018-11-28T14:20:46.455Z,69.07
2018-11-28T14:23:15.031Z,59.10
2018-11-28T14:25:43.612Z,63.60
2018-11-28T14:28:12.843Z,61.90
2018-11-28T14:30:41.431Z,57.13
2018-11-28T14:33:09.973Z,60.77
2018-11-28T14:35:38.621Z,63.47
2018-11-28T14:38:07.148Z,72.90
2018-11-28T14:40:36.028Z,68.87
2018-11-28T14:43:04.845Z,64.20
2018-11-28T14:45:33.699Z,65.80
2018-11-28T14:48:02.299Z,70.77
2018-11-28T14:50:30.867Z,66.60
2018-11-28T14:53:01.614Z,61.97
2018-11-28T14:55:31.448Z,65.30
2018-11-28T14:58:00.123Z,75.20
2018-11-28T15:00:29.976Z,58.97
2018-11-28T15:03:05.284Z,69.20
2018-11-28T15:06:41.272Z,72.00
2018-11-28T15:09:15.865Z,67.73
2018-11-28T15:11:44.960Z,65.93
2018-11-28T15:14:13.916Z,68.97
2018-11-28T15:16:42.525Z,61.70
2018-11-28T15:19:11.053Z,57.60
2018-11-28T15:21:39.843Z,59.10
2018-11-28T15:24:08.472Z,66.03
2018-11-28T15:26:37.131Z,73.07
2018-11-28T15:29:06.389Z,62.37
2018-11-28T15:31:35.044Z,61.33
2018-11-28T15:34:03.705Z,69.27
2018-11-28T15:38:59.651Z,66.87
2018-11-28T15:41:28.566Z,65.87
2018-11-28T15:43:58.219Z,72.03
2018-11-28T15:46:26.802Z,61.17
2018-11-28T15:48:55.451Z,62.70
2018-11-28T15:51:24.023Z,72.60
2018-11-28T15:53:52.657Z,61.90
2018-11-28T15:56:21.326Z,63.53
2018-11-28T15:58:50.528Z,71.50
2018-11-28T16:01:19.228Z,71.73
2018-11-28T16:03:47.812Z,69.33
2018-11-28T16:06:16.394Z,68.03
2018-11-28T16:08:45.416Z,68.33
2018-11-28T16:11:17.049Z,67.43
2018-11-28T16:13:45.610Z,64.50
2018-11-28T16:16:14.216Z,80.50
2018-11-28T16:18:43.643Z,81.57
2018-11-28T16:21:12.408Z,76.20
2018-11-28T16:23:41.782Z,92.03
2018-11-28T16:26:10.359Z,94.13
2018-11-28T16:28:39.028Z,66.20
2018-11-28T16:31:07.678Z,70.10
2018-11-28T16:33:36.227Z,61.00
2018-11-28T16:36:04.853Z,67.90
2018-11-28T16:38:33.471Z,67.67
2018-11-28T16:41:02.052Z,71.53
2018-11-28T16:43:30.602Z,69.30
2018-11-28T16:45:59.383Z,80.80
2018-11-28T16:48:28.040Z,67.07
2018-11-28T16:50:56.956Z,62.50
2018-11-28T16:53:26.040Z,62.07
2018-11-28T16:55:54.902Z,70.77
2018-11-28T16:58:23.903Z,70.00
2018-11-28T17:00:52.592Z,61.73
2018-11-28T17:03:21.198Z,62.13
2018-11-28T17:05:50.086Z,70.97
2018-11-28T17:08:19.086Z,75.20
2018-11-28T17:10:47.685Z,73.43
2018-11-28T17:13:16.467Z,69.47
2018-11-28T17:15:45.292Z,66.37
2018-11-28T17:18:13.995Z,69.80
2018-11-28T17:20:44.601Z,54.73
2018-11-28T17:23:13.265Z,60.97
2018-11-28T17:25:42.029Z,73.60
2018-11-28T17:28:10.682Z,62.10
2018-11-28T17:30:39.858Z,69.47
2018-11-28T17:33:09.059Z,66.03
2018-11-28T17:35:37.868Z,61.60
2018-11-28T17:38:07.347Z,52.77
2018-11-28T17:40:36.357Z,55.20
2018-11-28T17:43:05.371Z,57.73
2018-11-28T17:45:34.133Z,64.77
2018-11-28T17:48:03.151Z,62.50
2018-11-28T17:50:31.827Z,77.07
2018-11-28T17:53:15.591Z,62.47
2018-11-28T17:55:52.631Z,75.27
2018-11-28T17:58:21.737Z,52.40
2018-11-28T18:00:50.922Z,65.77
2018-11-28T18:03:20.261Z,67.80
2018-11-28T18:05:50.238Z,60.07
2018-11-28T18:08:19.428Z,60.53
2018-11-28T18:10:48.324Z,63.73
2018-11-28T18:13:18.049Z,63.83
2018-11-28T18:15:49.540Z,55.90
2018-11-28T18:18:19.700Z,63.47
2018-11-28T18:20:50.395Z,63.63
2018-11-28T18:23:17.150Z,63.50
2018-11-28T18:25:46.570Z,55.20
2018-11-28T18:28:16.322Z,63.60
2018-11-28T18:30:45.422Z,53.77
2018-11-28T18:33:14.877Z,62.27
2018-11-28T18:35:43.886Z,58.00
2018-11-28T18:38:13.023Z,59.83
2018-11-28T18:40:42.026Z,68.77
2018-11-28T18:43:11.271Z,60.47
2018-11-28T18:45:48.454Z,72.87
2018-11-28T18:48:17.164Z,66.60
2018-11-28T18:50:46.174Z,82.33
2018-11-28T18:53:15.317Z,62.77
2018-11-28T18:55:44.226Z,72.53
2018-11-28T18:58:13.890Z,62.37
2018-11-28T19:00:42.900Z,57.40
2018-11-28T19:03:11.759Z,64.47
2018-11-28T19:05:40.699Z,60.13
2018-11-28T19:08:10.100Z,57.13
2018-11-28T19:10:39.688Z,61.30
2018-11-28T19:13:08.760Z,59.30
2018-11-28T19:15:37.664Z,54.90
2018-11-28T19:18:07.357Z,51.30
2018-11-28T19:20:37.643Z,56.20
2018-11-28T19:23:06.828Z,48.53
2018-11-28T19:25:35.947Z,63.87
2018-11-28T19:28:05.103Z,48.77
2018-11-28T19:30:39.927Z,55.77
2018-11-28T19:33:11.060Z,48.33
2018-11-28T19:35:40.816Z,53.77
2018-11-28T19:38:12.471Z,50.80
2018-11-28T19:40:50.573Z,49.90
2018-11-28T19:43:20.178Z,44.70
2018-11-28T19:45:49.126Z,46.03
2018-11-28T19:48:18.306Z,50.67
2018-11-28T19:50:48.854Z,46.30
2018-11-28T19:53:18.176Z,51.90
2018-11-28T19:55:47.176Z,57.83
2018-11-28T19:58:16.523Z,47.10
2018-11-28T20:00:46.421Z,57.77
2018-11-28T20:03:16.600Z,48.03
2018-11-28T20:05:47.171Z,59.07
2018-11-28T20:08:17.188Z,56.03
2018-11-28T20:10:46.865Z,65.00
2018-11-28T20:13:16.543Z,54.93
2018-11-28T20:15:47.967Z,56.50
2018-11-28T20:18:17.906Z,52.03
2018-11-28T20:20:47.569Z,55.40
2018-11-28T20:23:16.944Z,53.23
2018-11-28T20:25:46.407Z,57.33
2018-11-28T20:28:15.544Z,52.37
2018-11-28T20:30:45.883Z,51.13
2018-11-28T20:33:16.636Z,50.97
2018-11-28T20:35:47.032Z,51.17
2018-11-28T20:38:26.024Z,59.47
2018-11-28T20:40:55.202Z,57.80
2018-11-28T20:43:24.829Z,51.37
2018-11-28T20:45:54.007Z,58.00
2018-11-28T20:48:23.933Z,55.57
2018-11-28T20:50:53.451Z,57.70
2018-11-28T20:53:23.255Z,52.97
2018-11-28T20:55:52.359Z,55.77
2018-11-28T20:58:21.801Z,51.77
2018-11-28T21:00:51.032Z,53.60
2018-11-28T21:03:22.206Z,55.43
2018-11-28T21:05:51.922Z,48.17
2018-11-28T21:08:21.347Z,49.00
2018-11-28T21:10:50.914Z,47.53
2018-11-28T21:13:20.070Z,50.43
2018-11-28T21:15:49.670Z,56.50
2018-11-28T21:18:19.223Z,59.97
2018-11-28T21:20:49.005Z,58.40
2018-11-28T21:23:19.196Z,51.43
2018-11-28T21:25:48.548Z,46.93
2018-11-28T21:28:17.580Z,51.20
2018-11-28T21:30:46.646Z,45.43
2018-11-28T21:33:15.795Z,55.80
2018-11-28T21:35:48.283Z,60.87
2018-11-28T21:38:17.888Z,55.63
2018-11-28T21:40:51.804Z,56.47
2018-11-28T21:43:20.506Z,55.77
2018-11-28T21:45:49.194Z,50.53
2018-11-28T21:48:17.839Z,49.80
2018-11-28T21:50:46.599Z,47.67
2018-11-28T21:53:15.662Z,51.47
2018-11-28T21:55:44.299Z,65.13
2018-11-28T21:58:14.052Z,53.20
2018-11-28T22:00:42.755Z,49.43
2018-11-28T22:03:11.749Z,59.17
2018-11-28T22:05:40.421Z,50.17
2018-11-28T22:08:09.534Z,46.77
2018-11-28T22:10:38.172Z,45.60
2018-11-28T22:13:06.802Z,45.30
2018-11-28T22:15:35.386Z,44.33
2018-11-28T22:18:03.993Z,47.50
2018-11-28T22:20:32.578Z,45.10
2018-11-28T22:23:01.914Z,44.20
2018-11-28T22:25:30.507Z,45.43
2018-11-28T22:27:59.109Z,50.23
2018-11-28T22:30:28.872Z,45.80
2018-11-28T22:32:58.180Z,42.70
2018-11-28T22:35:27.482Z,44.50
2018-11-28T22:37:56.291Z,47.57
2018-11-28T22:40:30.323Z,45.27
2018-11-28T22:42:59.178Z,45.97
2018-11-28T22:45:29.175Z,42.77
2018-11-28T22:47:58.015Z,47.90
2018-11-28T22:50:26.882Z,50.70
2018-11-28T22:52:56.677Z,41.13
2018-11-28T22:55:25.900Z,49.63
2018-11-28T23:00:39.961Z,42.97
2018-11-28T23:03:09.947Z,44.27
2018-11-28T23:05:41.147Z,55.50
2018-11-28T23:08:10.931Z,44.20
2018-11-28T23:10:39.933Z,52.07
2018-11-28T23:13:10.162Z,45.33
2018-11-28T23:15:39.003Z,40.80
2018-11-28T23:18:08.976Z,42.17
2018-11-28T23:20:37.756Z,48.50
2018-11-28T23:23:07.465Z,41.83
2018-11-28T23:25:36.487Z,47.80
2018-11-28T23:28:05.100Z,42.23
2018-11-28T23:30:33.949Z,44.90
2018-11-28T23:33:03.207Z,46.90
2018-11-28T23:35:32.120Z,43.07
2018-11-28T23:38:01.049Z,59.63
2018-11-28T23:40:29.598Z,38.47
2018-11-28T23:42:58.377Z,41.93
2018-11-28T23:45:27.318Z,44.87
2018-11-28T23:47:56.228Z,55.60
2018-11-28T23:50:25.973Z,55.97
2018-11-28T23:52:55.472Z,50.70
2018-11-28T23:55:29.119Z,45.93
2018-11-28T23:57:57.797Z,41.13
